sensor_id;sensor_type;location;lat;lon;timestamp;P1;durP1;ratioP1;P2;durP2;ratioP2
19495;SDS011;9888;48.606;9.630;2024-02-14T00:01:33;9.73;;;4.90;;
19495;SDS011;9888;48.606;9.630;2024-02-14T00:04:03;11.23;;;5.23;;
19495;SDS011;9888;48.606;9.630;2024-02-14T00:06:34;9.30;;;4.90;;
19495;SDS011;9888;48.606;9.630;2024-02-14T00:09:02;12.30;;;5.23;;
19495;SDS011;9888;48.606;9.630;2024-02-14T00:11:29;11.27;;;4.70;;
19495;SDS011;9888;48.606;9.630;2024-02-14T00:13:57;10.77;;;4.73;;
19495;SDS011;9888;48.606;9.630;2024-02-14T00:16:27;10.30;;;5.00;;
19495;SDS011;9888;48.606;9.630;2024-02-14T00:18:58;9.73;;;4.93;;
19495;SDS011;9888;48.606;9.630;2024-02-14T00:21:25;10.17;;;4.80;;
19495;SDS011;9888;48.606;9.630;2024-02-14T00:23:52;11.77;;;4.87;;
19495;SDS011;9888;48.606;9.630;2024-02-14T00:26:19;11.37;;;5.90;;
19495;SDS011;9888;48.606;9.630;2024-02-14T00:28:47;10.13;;;5.43;;
19495;SDS011;9888;48.606;9.630;2024-02-14T00:31:15;12.00;;;5.00;;
19495;SDS011;9888;48.606;9.630;2024-02-14T00:33:42;9.93;;;5.03;;
19495;SDS011;9888;48.606;9.630;2024-02-14T00:36:12;8.50;;;4.40;;
19495;SDS011;9888;48.606;9.630;2024-02-14T00:38:39;10.90;;;5.23;;
19495;SDS011;9888;48.606;9.630;2024-02-14T00:41:06;9.70;;;4.90;;
19495;SDS011;9888;48.606;9.630;2024-02-14T00:43:33;10.40;;;5.10;;
19495;SDS011;9888;48.606;9.630;2024-02-14T00:46:00;13.13;;;5.43;;
19495;SDS011;9888;48.606;9.630;2024-02-14T00:48:27;11.10;;;5.50;;
19495;SDS011;9888;48.606;9.630;2024-02-14T00:50:55;9.27;;;4.40;;
19495;SDS011;9888;48.606;9.630;2024-02-14T00:53:22;9.10;;;5.03;;
19495;SDS011;9888;48.606;9.630;2024-02-14T00:55:49;9.57;;;4.33;;
19495;SDS011;9888;48.606;9.630;2024-02-14T00:58:16;12.07;;;5.10;;
19495;SDS011;9888;48.606;9.630;2024-02-14T01:00:43;10.27;;;4.77;;
19495;SDS011;9888;48.606;9.630;2024-02-14T01:03:10;8.87;;;4.53;;
19495;SDS011;9888;48.606;9.630;2024-02-14T01:05:40;9.60;;;4.67;;
19495;SDS011;9888;48.606;9.630;2024-02-14T01:08:08;10.63;;;4.90;;
19495;SDS011;9888;48.606;9.630;2024-02-14T01:10:35;12.20;;;5.27;;
19495;SDS011;9888;48.606;9.630;2024-02-14T01:13:02;9.97;;;5.30;;
19495;SDS011;9888;48.606;9.630;2024-02-14T01:15:28;11.00;;;4.83;;
19495;SDS011;9888;48.606;9.630;2024-02-14T01:17:56;9.40;;;4.83;;
19495;SDS011;9888;48.606;9.630;2024-02-14T01:20:23;10.17;;;4.90;;
19495;SDS011;9888;48.606;9.630;2024-02-14T01:22:50;9.30;;;5.03;;
19495;SDS011;9888;48.606;9.630;2024-02-14T01:25:17;11.70;;;4.73;;
19495;SDS011;9888;48.606;9.630;2024-02-14T01:27:47;9.90;;;5.13;;
19495;SDS011;9888;48.606;9.630;2024-02-14T01:33:03;10.93;;;5.00;;
19495;SDS011;9888;48.606;9.630;2024-02-14T01:35:39;10.20;;;5.37;;
19495;SDS011;9888;48.606;9.630;2024-02-14T01:38:08;13.43;;;4.70;;
19495;SDS011;9888;48.606;9.630;2024-02-14T01:40:38;8.73;;;4.73;;
19495;SDS011;9888;48.606;9.630;2024-02-14T01:43:10;9.30;;;4.50;;
19495;SDS011;9888;48.606;9.630;2024-02-14T01:45:39;10.40;;;4.50;;
19495;SDS011;9888;48.606;9.630;2024-02-14T01:48:07;10.00;;;4.73;;
19495;SDS011;9888;48.606;9.630;2024-02-14T01:50:35;8.40;;;4.30;;
19495;SDS011;9888;48.606;9.630;2024-02-14T01:53:04;9.83;;;4.40;;
19495;SDS011;9888;48.606;9.630;2024-02-14T01:55:32;9.53;;;4.70;;
19495;SDS011;9888;48.606;9.630;2024-02-14T01:58:04;10.80;;;4.40;;
19495;SDS011;9888;48.606;9.630;2024-02-14T02:03:53;12.30;;;4.40;;
19495;SDS011;9888;48.606;9.630;2024-02-14T02:06:22;10.20;;;4.93;;
19495;SDS011;9888;48.606;9.630;2024-02-14T02:08:49;9.37;;;4.53;;
19495;SDS011;9888;48.606;9.630;2024-02-14T02:11:16;9.27;;;4.73;;
19495;SDS011;9888;48.606;9.630;2024-02-14T02:13:45;11.00;;;4.30;;
19495;SDS011;9888;48.606;9.630;2024-02-14T02:16:14;9.53;;;4.37;;
19495;SDS011;9888;48.606;9.630;2024-02-14T02:18:41;10.60;;;4.90;;
19495;SDS011;9888;48.606;9.630;2024-02-14T02:21:08;11.43;;;4.30;;
19495;SDS011;9888;48.606;9.630;2024-02-14T02:23:38;10.63;;;4.40;;
19495;SDS011;9888;48.606;9.630;2024-02-14T02:26:07;8.27;;;4.17;;
19495;SDS011;9888;48.606;9.630;2024-02-14T02:28:34;8.40;;;3.93;;
19495;SDS011;9888;48.606;9.630;2024-02-14T02:31:01;9.83;;;4.23;;
19495;SDS011;9888;48.606;9.630;2024-02-14T02:33:30;10.87;;;4.70;;
19495;SDS011;9888;48.606;9.630;2024-02-14T02:35:58;8.37;;;3.90;;
19495;SDS011;9888;48.606;9.630;2024-02-14T02:38:26;9.83;;;4.30;;
19495;SDS011;9888;48.606;9.630;2024-02-14T02:40:59;8.90;;;4.43;;
19495;SDS011;9888;48.606;9.630;2024-02-14T02:43:29;8.93;;;4.47;;
19495;SDS011;9888;48.606;9.630;2024-02-14T02:45:58;9.87;;;4.80;;
19495;SDS011;9888;48.606;9.630;2024-02-14T02:48:25;8.77;;;4.57;;
19495;SDS011;9888;48.606;9.630;2024-02-14T02:51:00;10.70;;;4.03;;
19495;SDS011;9888;48.606;9.630;2024-02-14T02:56:49;8.90;;;4.20;;
19495;SDS011;9888;48.606;9.630;2024-02-14T02:59:18;8.10;;;4.27;;
19495;SDS011;9888;48.606;9.630;2024-02-14T03:01:46;10.63;;;4.13;;
19495;SDS011;9888;48.606;9.630;2024-02-14T03:04:16;8.60;;;4.00;;
19495;SDS011;9888;48.606;9.630;2024-02-14T03:06:51;8.33;;;3.90;;
19495;SDS011;9888;48.606;9.630;2024-02-14T03:09:19;8.97;;;4.63;;
19495;SDS011;9888;48.606;9.630;2024-02-14T03:11:53;8.20;;;3.93;;
19495;SDS011;9888;48.606;9.630;2024-02-14T03:14:22;11.97;;;4.90;;
19495;SDS011;9888;48.606;9.630;2024-02-14T03:16:50;9.97;;;4.20;;
19495;SDS011;9888;48.606;9.630;2024-02-14T03:19:18;8.10;;;3.87;;
19495;SDS011;9888;48.606;9.630;2024-02-14T03:21:47;10.40;;;4.00;;
19495;SDS011;9888;48.606;9.630;2024-02-14T03:24:16;10.37;;;4.30;;
19495;SDS011;9888;48.606;9.630;2024-02-14T03:26:52;8.57;;;4.50;;
19495;SDS011;9888;48.606;9.630;2024-02-14T03:32:50;11.17;;;5.33;;
19495;SDS011;9888;48.606;9.630;2024-02-14T03:35:18;12.77;;;5.67;;
19495;SDS011;9888;48.606;9.630;2024-02-14T03:37:48;12.03;;;5.10;;
19495;SDS011;9888;48.606;9.630;2024-02-14T03:40:21;13.50;;;5.60;;
19495;SDS011;9888;48.606;9.630;2024-02-14T03:42:47;10.70;;;5.50;;
19495;SDS011;9888;48.606;9.630;2024-02-14T03:48:49;11.90;;;5.80;;
19495;SDS011;9888;48.606;9.630;2024-02-14T03:51:17;10.60;;;5.73;;
19495;SDS011;9888;48.606;9.630;2024-02-14T03:53:45;9.53;;;5.20;;
19495;SDS011;9888;48.606;9.630;2024-02-14T03:56:12;14.13;;;5.87;;
19495;SDS011;9888;48.606;9.630;2024-02-14T03:58:40;12.47;;;5.53;;
19495;SDS011;9888;48.606;9.630;2024-02-14T04:01:07;9.07;;;4.83;;
19495;SDS011;9888;48.606;9.630;2024-02-14T04:03:35;9.27;;;5.13;;
19495;SDS011;9888;48.606;9.630;2024-02-14T04:06:03;11.37;;;5.63;;
19495;SDS011;9888;48.606;9.630;2024-02-14T04:08:30;9.13;;;4.90;;
19495;SDS011;9888;48.606;9.630;2024-02-14T04:11:02;9.10;;;4.87;;
19495;SDS011;9888;48.606;9.630;2024-02-14T04:13:29;9.27;;;4.67;;
19495;SDS011;9888;48.606;9.630;2024-02-14T04:15:56;9.70;;;4.43;;
19495;SDS011;9888;48.606;9.630;2024-02-14T04:18:23;16.90;;;5.70;;
19495;SDS011;9888;48.606;9.630;2024-02-14T04:20:51;14.73;;;5.60;;
19495;SDS011;9888;48.606;9.630;2024-02-14T04:23:18;12.13;;;4.40;;
19495;SDS011;9888;48.606;9.630;2024-02-14T04:25:46;11.70;;;4.80;;
19495;SDS011;9888;48.606;9.630;2024-02-14T04:28:13;10.33;;;4.97;;
19495;SDS011;9888;48.606;9.630;2024-02-14T04:30:41;10.87;;;4.60;;
19495;SDS011;9888;48.606;9.630;2024-02-14T04:33:09;10.10;;;4.80;;
19495;SDS011;9888;48.606;9.630;2024-02-14T04:35:37;10.43;;;4.80;;
19495;SDS011;9888;48.606;9.630;2024-02-14T04:38:04;11.63;;;4.63;;
19495;SDS011;9888;48.606;9.630;2024-02-14T04:40:32;10.80;;;4.20;;
19495;SDS011;9888;48.606;9.630;2024-02-14T04:42:59;9.90;;;4.87;;
19495;SDS011;9888;48.606;9.630;2024-02-14T04:45:27;10.90;;;4.37;;
19495;SDS011;9888;48.606;9.630;2024-02-14T04:47:54;8.57;;;4.20;;
19495;SDS011;9888;48.606;9.630;2024-02-14T04:50:21;11.60;;;4.60;;
19495;SDS011;9888;48.606;9.630;2024-02-14T04:52:49;9.27;;;4.20;;
19495;SDS011;9888;48.606;9.630;2024-02-14T04:55:18;9.93;;;3.77;;
19495;SDS011;9888;48.606;9.630;2024-02-14T04:57:45;8.87;;;4.00;;
19495;SDS011;9888;48.606;9.630;2024-02-14T05:00:12;7.87;;;3.80;;
19495;SDS011;9888;48.606;9.630;2024-02-14T05:02:40;9.00;;;4.20;;
19495;SDS011;9888;48.606;9.630;2024-02-14T05:05:07;8.10;;;4.17;;
19495;SDS011;9888;48.606;9.630;2024-02-14T05:07:35;8.60;;;4.00;;
19495;SDS011;9888;48.606;9.630;2024-02-14T05:10:03;11.43;;;3.83;;
19495;SDS011;9888;48.606;9.630;2024-02-14T05:12:32;10.37;;;4.03;;
19495;SDS011;9888;48.606;9.630;2024-02-14T05:15:00;12.87;;;4.70;;
19495;SDS011;9888;48.606;9.630;2024-02-14T05:17:29;13.93;;;4.30;;
19495;SDS011;9888;48.606;9.630;2024-02-14T05:19:57;12.93;;;4.90;;
19495;SDS011;9888;48.606;9.630;2024-02-14T05:22:24;12.80;;;5.03;;
19495;SDS011;9888;48.606;9.630;2024-02-14T05:24:53;11.93;;;4.17;;
19495;SDS011;9888;48.606;9.630;2024-02-14T05:27:20;9.73;;;4.50;;
19495;SDS011;9888;48.606;9.630;2024-02-14T05:29:48;9.13;;;3.77;;
19495;SDS011;9888;48.606;9.630;2024-02-14T05:32:15;15.27;;;4.53;;
19495;SDS011;9888;48.606;9.630;2024-02-14T05:34:42;14.73;;;4.60;;
19495;SDS011;9888;48.606;9.630;2024-02-14T05:37:13;11.17;;;4.70;;
19495;SDS011;9888;48.606;9.630;2024-02-14T05:39:42;17.30;;;6.47;;
19495;SDS011;9888;48.606;9.630;2024-02-14T05:42:10;11.70;;;4.60;;
19495;SDS011;9888;48.606;9.630;2024-02-14T05:44:38;12.93;;;4.60;;
19495;SDS011;9888;48.606;9.630;2024-02-14T05:50:10;19.13;;;5.30;;
19495;SDS011;9888;48.606;9.630;2024-02-14T05:53:09;15.23;;;6.10;;
19495;SDS011;9888;48.606;9.630;2024-02-14T05:55:38;13.60;;;4.77;;
19495;SDS011;9888;48.606;9.630;2024-02-14T05:58:05;11.73;;;4.30;;
19495;SDS011;9888;48.606;9.630;2024-02-14T06:04:03;15.43;;;4.60;;
19495;SDS011;9888;48.606;9.630;2024-02-14T06:06:31;31.53;;;5.07;;
19495;SDS011;9888;48.606;9.630;2024-02-14T06:08:58;9.30;;;4.13;;
19495;SDS011;9888;48.606;9.630;2024-02-14T06:11:26;7.93;;;4.00;;
19495;SDS011;9888;48.606;9.630;2024-02-14T06:17:08;8.23;;;3.87;;
19495;SDS011;9888;48.606;9.630;2024-02-14T06:22:33;9.40;;;3.80;;
19495;SDS011;9888;48.606;9.630;2024-02-14T06:25:00;12.53;;;4.80;;
19495;SDS011;9888;48.606;9.630;2024-02-14T06:27:31;18.63;;;4.87;;
19495;SDS011;9888;48.606;9.630;2024-02-14T06:30:26;11.57;;;4.30;;
19495;SDS011;9888;48.606;9.630;2024-02-14T06:32:54;9.20;;;4.10;;
19495;SDS011;9888;48.606;9.630;2024-02-14T06:38:50;10.77;;;3.50;;
19495;SDS011;9888;48.606;9.630;2024-02-14T06:41:18;9.97;;;4.10;;
19495;SDS011;9888;48.606;9.630;2024-02-14T06:43:46;9.13;;;3.90;;
19495;SDS011;9888;48.606;9.630;2024-02-14T06:46:14;8.77;;;3.10;;
19495;SDS011;9888;48.606;9.630;2024-02-14T06:48:41;9.23;;;3.80;;
19495;SDS011;9888;48.606;9.630;2024-02-14T06:51:08;9.90;;;3.73;;
19495;SDS011;9888;48.606;9.630;2024-02-14T06:53:35;15.87;;;8.20;;
19495;SDS011;9888;48.606;9.630;2024-02-14T06:56:02;11.77;;;4.17;;
19495;SDS011;9888;48.606;9.630;2024-02-14T06:58:35;9.30;;;4.10;;
19495;SDS011;9888;48.606;9.630;2024-02-14T07:01:02;8.77;;;4.07;;
19495;SDS011;9888;48.606;9.630;2024-02-14T07:03:30;9.33;;;3.57;;
19495;SDS011;9888;48.606;9.630;2024-02-14T07:05:57;11.37;;;4.50;;
19495;SDS011;9888;48.606;9.630;2024-02-14T07:08:24;11.50;;;4.70;;
19495;SDS011;9888;48.606;9.630;2024-02-14T07:10:54;10.53;;;4.90;;
19495;SDS011;9888;48.606;9.630;2024-02-14T07:13:22;8.67;;;4.20;;
19495;SDS011;9888;48.606;9.630;2024-02-14T07:15:49;8.37;;;3.50;;
19495;SDS011;9888;48.606;9.630;2024-02-14T07:18:18;10.60;;;4.33;;
19495;SDS011;9888;48.606;9.630;2024-02-14T07:20:45;15.43;;;5.40;;
19495;SDS011;9888;48.606;9.630;2024-02-14T07:23:12;9.23;;;2.50;;
19495;SDS011;9888;48.606;9.630;2024-02-14T07:25:40;13.80;;;3.60;;
19495;SDS011;9888;48.606;9.630;2024-02-14T07:31:30;12.00;;;6.23;;
19495;SDS011;9888;48.606;9.630;2024-02-14T07:34:00;16.73;;;5.93;;
19495;SDS011;9888;48.606;9.630;2024-02-14T07:36:44;14.27;;;5.73;;
19495;SDS011;9888;48.606;9.630;2024-02-14T07:39:12;16.67;;;4.80;;
19495;SDS011;9888;48.606;9.630;2024-02-14T07:41:39;8.50;;;3.90;;
19495;SDS011;9888;48.606;9.630;2024-02-14T07:44:06;13.83;;;4.30;;
19495;SDS011;9888;48.606;9.630;2024-02-14T07:46:34;10.20;;;4.40;;
19495;SDS011;9888;48.606;9.630;2024-02-14T07:49:02;10.43;;;4.30;;
19495;SDS011;9888;48.606;9.630;2024-02-14T07:51:30;11.87;;;4.73;;
19495;SDS011;9888;48.606;9.630;2024-02-14T07:54:05;11.30;;;4.20;;
19495;SDS011;9888;48.606;9.630;2024-02-14T07:56:32;9.23;;;4.10;;
19495;SDS011;9888;48.606;9.630;2024-02-14T08:02:42;10.83;;;3.50;;
19495;SDS011;9888;48.606;9.630;2024-02-14T08:05:11;9.20;;;3.47;;
19495;SDS011;9888;48.606;9.630;2024-02-14T08:07:56;6.70;;;2.30;;
19495;SDS011;9888;48.606;9.630;2024-02-14T08:10:23;10.50;;;2.83;;
19495;SDS011;9888;48.606;9.630;2024-02-14T08:12:51;8.13;;;3.40;;
19495;SDS011;9888;48.606;9.630;2024-02-14T08:15:25;5.93;;;2.20;;
19495;SDS011;9888;48.606;9.630;2024-02-14T08:17:51;8.00;;;2.80;;
19495;SDS011;9888;48.606;9.630;2024-02-14T08:20:22;6.27;;;1.70;;
19495;SDS011;9888;48.606;9.630;2024-02-14T08:25:38;5.13;;;1.30;;
19495;SDS011;9888;48.606;9.630;2024-02-14T08:28:06;6.60;;;1.40;;
19495;SDS011;9888;48.606;9.630;2024-02-14T08:30:36;7.40;;;1.30;;
19495;SDS011;9888;48.606;9.630;2024-02-14T08:33:04;4.83;;;1.37;;
19495;SDS011;9888;48.606;9.630;2024-02-14T08:35:32;5.07;;;1.30;;
19495;SDS011;9888;48.606;9.630;2024-02-14T08:38:00;5.40;;;1.40;;
19495;SDS011;9888;48.606;9.630;2024-02-14T08:40:28;5.00;;;1.30;;
19495;SDS011;9888;48.606;9.630;2024-02-14T08:42:55;5.33;;;1.50;;
19495;SDS011;9888;48.606;9.630;2024-02-14T08:45:22;8.10;;;1.77;;
19495;SDS011;9888;48.606;9.630;2024-02-14T08:47:51;9.33;;;4.50;;
19495;SDS011;9888;48.606;9.630;2024-02-14T08:50:22;12.37;;;2.27;;
19495;SDS011;9888;48.606;9.630;2024-02-14T08:52:49;5.20;;;1.40;;
19495;SDS011;9888;48.606;9.630;2024-02-14T08:55:16;5.57;;;1.30;;
19495;SDS011;9888;48.606;9.630;2024-02-14T08:57:44;11.50;;;1.80;;
19495;SDS011;9888;48.606;9.630;2024-02-14T09:00:14;11.33;;;1.63;;
19495;SDS011;9888;48.606;9.630;2024-02-14T09:02:45;7.10;;;1.40;;
19495;SDS011;9888;48.606;9.630;2024-02-14T09:05:14;24.87;;;16.97;;
19495;SDS011;9888;48.606;9.630;2024-02-14T09:07:42;26.90;;;13.67;;
19495;SDS011;9888;48.606;9.630;2024-02-14T09:10:10;6.23;;;1.80;;
19495;SDS011;9888;48.606;9.630;2024-02-14T09:12:41;7.47;;;2.20;;
19495;SDS011;9888;48.606;9.630;2024-02-14T09:15:09;5.67;;;1.77;;
19495;SDS011;9888;48.606;9.630;2024-02-14T09:17:37;5.33;;;1.40;;
19495;SDS011;9888;48.606;9.630;2024-02-14T09:20:07;5.70;;;1.40;;
19495;SDS011;9888;48.606;9.630;2024-02-14T09:22:35;5.90;;;1.50;;
19495;SDS011;9888;48.606;9.630;2024-02-14T09:25:02;9.40;;;6.20;;
19495;SDS011;9888;48.606;9.630;2024-02-14T09:27:33;6.67;;;2.37;;
19495;SDS011;9888;48.606;9.630;2024-02-14T09:30:01;7.10;;;1.70;;
19495;SDS011;9888;48.606;9.630;2024-02-14T09:32:30;5.87;;;1.43;;
19495;SDS011;9888;48.606;9.630;2024-02-14T09:34:57;5.00;;;1.40;;
19495;SDS011;9888;48.606;9.630;2024-02-14T09:37:30;5.20;;;1.30;;
19495;SDS011;9888;48.606;9.630;2024-02-14T09:39:58;6.40;;;1.50;;
19495;SDS011;9888;48.606;9.630;2024-02-14T09:42:28;5.10;;;1.27;;
19495;SDS011;9888;48.606;9.630;2024-02-14T09:45:33;5.50;;;1.30;;
19495;SDS011;9888;48.606;9.630;2024-02-14T09:48:01;5.47;;;1.67;;
19495;SDS011;9888;48.606;9.630;2024-02-14T09:50:31;5.37;;;1.63;;
19495;SDS011;9888;48.606;9.630;2024-02-14T09:53:00;5.13;;;1.30;;
19495;SDS011;9888;48.606;9.630;2024-02-14T09:55:28;7.63;;;1.40;;
19495;SDS011;9888;48.606;9.630;2024-02-14T09:57:56;4.70;;;1.30;;
19495;SDS011;9888;48.606;9.630;2024-02-14T10:00:31;5.43;;;1.50;;
19495;SDS011;9888;48.606;9.630;2024-02-14T10:02:59;6.07;;;1.60;;
19495;SDS011;9888;48.606;9.630;2024-02-14T10:05:29;6.90;;;1.70;;
19495;SDS011;9888;48.606;9.630;2024-02-14T10:07:57;6.77;;;1.90;;
19495;SDS011;9888;48.606;9.630;2024-02-14T10:10:24;6.13;;;1.57;;
19495;SDS011;9888;48.606;9.630;2024-02-14T10:12:51;7.80;;;1.70;;
19495;SDS011;9888;48.606;9.630;2024-02-14T10:15:20;6.47;;;1.77;;
19495;SDS011;9888;48.606;9.630;2024-02-14T10:17:47;5.17;;;1.40;;
19495;SDS011;9888;48.606;9.630;2024-02-14T10:20:16;5.10;;;1.47;;
19495;SDS011;9888;48.606;9.630;2024-02-14T10:22:44;5.73;;;1.47;;
19495;SDS011;9888;48.606;9.630;2024-02-14T10:25:11;7.27;;;2.00;;
19495;SDS011;9888;48.606;9.630;2024-02-14T10:27:40;10.50;;;1.97;;
19495;SDS011;9888;48.606;9.630;2024-02-14T10:30:08;5.57;;;1.40;;
19495;SDS011;9888;48.606;9.630;2024-02-14T10:32:37;5.50;;;1.60;;
19495;SDS011;9888;48.606;9.630;2024-02-14T10:35:13;5.97;;;1.60;;
19495;SDS011;9888;48.606;9.630;2024-02-14T10:37:41;5.97;;;1.40;;
19495;SDS011;9888;48.606;9.630;2024-02-14T10:40:12;5.60;;;1.40;;
19495;SDS011;9888;48.606;9.630;2024-02-14T10:42:39;5.00;;;1.40;;
19495;SDS011;9888;48.606;9.630;2024-02-14T10:45:07;6.27;;;1.27;;
19495;SDS011;9888;48.606;9.630;2024-02-14T10:47:36;7.73;;;1.50;;
19495;SDS011;9888;48.606;9.630;2024-02-14T10:50:07;5.27;;;1.50;;
19495;SDS011;9888;48.606;9.630;2024-02-14T10:52:36;6.70;;;1.47;;
19495;SDS011;9888;48.606;9.630;2024-02-14T10:55:06;5.30;;;1.27;;
19495;SDS011;9888;48.606;9.630;2024-02-14T11:00:51;5.00;;;1.40;;
19495;SDS011;9888;48.606;9.630;2024-02-14T11:03:20;5.20;;;1.20;;
19495;SDS011;9888;48.606;9.630;2024-02-14T11:05:48;5.10;;;1.30;;
19495;SDS011;9888;48.606;9.630;2024-02-14T11:08:18;4.83;;;1.33;;
19495;SDS011;9888;48.606;9.630;2024-02-14T11:10:53;4.83;;;1.17;;
19495;SDS011;9888;48.606;9.630;2024-02-14T11:16:45;5.47;;;1.40;;
19495;SDS011;9888;48.606;9.630;2024-02-14T11:19:12;5.93;;;1.53;;
19495;SDS011;9888;48.606;9.630;2024-02-14T11:21:42;8.60;;;4.40;;
19495;SDS011;9888;48.606;9.630;2024-02-14T11:24:12;5.70;;;1.60;;
19495;SDS011;9888;48.606;9.630;2024-02-14T11:26:50;4.80;;;1.27;;
19495;SDS011;9888;48.606;9.630;2024-02-14T11:29:18;4.93;;;1.10;;
19495;SDS011;9888;48.606;9.630;2024-02-14T11:31:45;4.97;;;1.33;;
19495;SDS011;9888;48.606;9.630;2024-02-14T11:34:13;4.97;;;1.00;;
19495;SDS011;9888;48.606;9.630;2024-02-14T11:36:44;6.63;;;1.20;;
19495;SDS011;9888;48.606;9.630;2024-02-14T11:39:11;4.67;;;1.10;;
19495;SDS011;9888;48.606;9.630;2024-02-14T11:41:39;4.70;;;1.17;;
19495;SDS011;9888;48.606;9.630;2024-02-14T11:44:10;4.90;;;1.23;;
19495;SDS011;9888;48.606;9.630;2024-02-14T11:46:38;5.97;;;1.13;;
19495;SDS011;9888;48.606;9.630;2024-02-14T11:49:06;5.20;;;1.27;;
19495;SDS011;9888;48.606;9.630;2024-02-14T11:51:33;4.70;;;1.20;;
19495;SDS011;9888;48.606;9.630;2024-02-14T11:54:07;5.20;;;1.30;;
19495;SDS011;9888;48.606;9.630;2024-02-14T11:56:36;4.80;;;1.10;;
19495;SDS011;9888;48.606;9.630;2024-02-14T11:59:04;5.50;;;1.00;;
19495;SDS011;9888;48.606;9.630;2024-02-14T12:01:35;5.00;;;1.40;;
19495;SDS011;9888;48.606;9.630;2024-02-14T12:04:07;5.17;;;1.37;;
19495;SDS011;9888;48.606;9.630;2024-02-14T12:06:34;5.90;;;1.70;;
19495;SDS011;9888;48.606;9.630;2024-02-14T12:09:03;5.10;;;1.40;;
19495;SDS011;9888;48.606;9.630;2024-02-14T12:11:31;5.60;;;1.70;;
19495;SDS011;9888;48.606;9.630;2024-02-14T12:14:01;5.57;;;1.73;;
19495;SDS011;9888;48.606;9.630;2024-02-14T12:16:30;5.33;;;1.50;;
19495;SDS011;9888;48.606;9.630;2024-02-14T12:19:04;6.00;;;1.67;;
19495;SDS011;9888;48.606;9.630;2024-02-14T12:21:41;5.67;;;1.67;;
19495;SDS011;9888;48.606;9.630;2024-02-14T12:24:19;5.40;;;1.60;;
19495;SDS011;9888;48.606;9.630;2024-02-14T12:26:46;4.53;;;1.20;;
19495;SDS011;9888;48.606;9.630;2024-02-14T12:29:14;5.30;;;1.47;;
19495;SDS011;9888;48.606;9.630;2024-02-14T12:31:43;5.80;;;1.70;;
19495;SDS011;9888;48.606;9.630;2024-02-14T12:34:11;7.00;;;1.90;;
19495;SDS011;9888;48.606;9.630;2024-02-14T12:36:40;8.40;;;1.50;;
19495;SDS011;9888;48.606;9.630;2024-02-14T12:39:07;5.73;;;1.60;;
19495;SDS011;9888;48.606;9.630;2024-02-14T12:41:38;5.40;;;1.40;;
19495;SDS011;9888;48.606;9.630;2024-02-14T12:44:06;5.10;;;1.20;;
19495;SDS011;9888;48.606;9.630;2024-02-14T12:46:33;6.20;;;1.30;;
19495;SDS011;9888;48.606;9.630;2024-02-14T12:49:03;5.10;;;1.23;;
19495;SDS011;9888;48.606;9.630;2024-02-14T12:51:30;5.00;;;1.43;;
19495;SDS011;9888;48.606;9.630;2024-02-14T12:53:58;4.67;;;1.10;;
19495;SDS011;9888;48.606;9.630;2024-02-14T12:56:26;5.37;;;1.10;;
19495;SDS011;9888;48.606;9.630;2024-02-14T12:58:53;5.27;;;1.30;;
19495;SDS011;9888;48.606;9.630;2024-02-14T13:01:20;6.13;;;1.30;;
19495;SDS011;9888;48.606;9.630;2024-02-14T13:03:47;4.93;;;1.17;;
19495;SDS011;9888;48.606;9.630;2024-02-14T13:06:18;4.80;;;1.30;;
19495;SDS011;9888;48.606;9.630;2024-02-14T13:08:46;5.10;;;1.17;;
19495;SDS011;9888;48.606;9.630;2024-02-14T13:11:14;6.27;;;1.33;;
19495;SDS011;9888;48.606;9.630;2024-02-14T13:13:52;5.40;;;1.40;;
19495;SDS011;9888;48.606;9.630;2024-02-14T13:16:19;5.97;;;1.30;;
19495;SDS011;9888;48.606;9.630;2024-02-14T13:18:46;4.47;;;1.10;;
19495;SDS011;9888;48.606;9.630;2024-02-14T13:21:14;6.80;;;1.30;;
19495;SDS011;9888;48.606;9.630;2024-02-14T13:23:48;5.60;;;1.10;;
19495;SDS011;9888;48.606;9.630;2024-02-14T13:26:18;4.60;;;1.00;;
19495;SDS011;9888;48.606;9.630;2024-02-14T13:28:54;5.10;;;1.20;;
19495;SDS011;9888;48.606;9.630;2024-02-14T13:31:21;4.87;;;1.17;;
19495;SDS011;9888;48.606;9.630;2024-02-14T13:33:49;4.80;;;1.13;;
19495;SDS011;9888;48.606;9.630;2024-02-14T13:36:16;4.50;;;1.10;;
19495;SDS011;9888;48.606;9.630;2024-02-14T13:38:44;4.60;;;1.00;;
19495;SDS011;9888;48.606;9.630;2024-02-14T13:41:12;5.13;;;1.00;;
19495;SDS011;9888;48.606;9.630;2024-02-14T13:43:38;5.70;;;1.53;;
19495;SDS011;9888;48.606;9.630;2024-02-14T13:46:07;4.37;;;0.90;;
19495;SDS011;9888;48.606;9.630;2024-02-14T13:48:35;4.30;;;1.00;;
19495;SDS011;9888;48.606;9.630;2024-02-14T13:51:03;7.90;;;1.10;;
19495;SDS011;9888;48.606;9.630;2024-02-14T13:53:30;4.40;;;0.80;;
19495;SDS011;9888;48.606;9.630;2024-02-14T13:55:58;5.37;;;1.30;;
19495;SDS011;9888;48.606;9.630;2024-02-14T13:58:25;4.87;;;1.07;;
19495;SDS011;9888;48.606;9.630;2024-02-14T14:00:54;4.70;;;1.10;;
19495;SDS011;9888;48.606;9.630;2024-02-14T14:03:22;5.20;;;0.93;;
19495;SDS011;9888;48.606;9.630;2024-02-14T14:05:49;4.53;;;1.10;;
19495;SDS011;9888;48.606;9.630;2024-02-14T14:08:19;5.47;;;1.00;;
19495;SDS011;9888;48.606;9.630;2024-02-14T14:10:46;7.30;;;1.20;;
19495;SDS011;9888;48.606;9.630;2024-02-14T14:13:13;4.80;;;1.00;;
19495;SDS011;9888;48.606;9.630;2024-02-14T14:15:41;6.10;;;1.10;;
19495;SDS011;9888;48.606;9.630;2024-02-14T14:18:08;5.10;;;0.90;;
19495;SDS011;9888;48.606;9.630;2024-02-14T14:20:37;4.70;;;1.07;;
19495;SDS011;9888;48.606;9.630;2024-02-14T14:23:06;4.80;;;1.10;;
19495;SDS011;9888;48.606;9.630;2024-02-14T14:25:34;4.73;;;0.90;;
19495;SDS011;9888;48.606;9.630;2024-02-14T14:28:03;4.97;;;1.00;;
19495;SDS011;9888;48.606;9.630;2024-02-14T14:30:31;5.53;;;1.03;;
19495;SDS011;9888;48.606;9.630;2024-02-14T14:32:59;4.93;;;1.00;;
19495;SDS011;9888;48.606;9.630;2024-02-14T14:35:26;5.60;;;1.00;;
19495;SDS011;9888;48.606;9.630;2024-02-14T14:37:56;4.97;;;1.10;;
19495;SDS011;9888;48.606;9.630;2024-02-14T14:40:23;4.23;;;0.80;;
19495;SDS011;9888;48.606;9.630;2024-02-14T14:42:50;4.30;;;0.90;;
19495;SDS011;9888;48.606;9.630;2024-02-14T14:45:18;7.50;;;1.10;;
19495;SDS011;9888;48.606;9.630;2024-02-14T14:47:45;4.50;;;1.00;;
19495;SDS011;9888;48.606;9.630;2024-02-14T14:50:14;5.10;;;1.00;;
19495;SDS011;9888;48.606;9.630;2024-02-14T14:52:45;5.17;;;1.10;;
19495;SDS011;9888;48.606;9.630;2024-02-14T14:55:12;4.50;;;0.90;;
19495;SDS011;9888;48.606;9.630;2024-02-14T14:57:39;4.37;;;0.87;;
19495;SDS011;9888;48.606;9.630;2024-02-14T15:00:09;4.47;;;1.03;;
19495;SDS011;9888;48.606;9.630;2024-02-14T15:02:40;5.50;;;0.97;;
19495;SDS011;9888;48.606;9.630;2024-02-14T15:05:11;5.00;;;0.80;;
19495;SDS011;9888;48.606;9.630;2024-02-14T15:07:38;4.50;;;1.00;;
19495;SDS011;9888;48.606;9.630;2024-02-14T15:10:09;4.60;;;0.93;;
19495;SDS011;9888;48.606;9.630;2024-02-14T15:12:38;4.60;;;1.10;;
19495;SDS011;9888;48.606;9.630;2024-02-14T15:15:05;4.60;;;1.00;;
19495;SDS011;9888;48.606;9.630;2024-02-14T15:17:32;4.37;;;0.90;;
19495;SDS011;9888;48.606;9.630;2024-02-14T15:20:00;6.10;;;1.10;;
19495;SDS011;9888;48.606;9.630;2024-02-14T15:22:29;4.23;;;0.80;;
19495;SDS011;9888;48.606;9.630;2024-02-14T15:24:56;4.93;;;0.90;;
19495;SDS011;9888;48.606;9.630;2024-02-14T15:27:24;9.43;;;1.60;;
19495;SDS011;9888;48.606;9.630;2024-02-14T15:29:52;4.50;;;0.90;;
19495;SDS011;9888;48.606;9.630;2024-02-14T15:32:38;4.30;;;0.80;;
19495;SDS011;9888;48.606;9.630;2024-02-14T15:35:23;4.63;;;1.00;;
19495;SDS011;9888;48.606;9.630;2024-02-14T15:37:50;4.53;;;1.00;;
19495;SDS011;9888;48.606;9.630;2024-02-14T15:40:18;4.90;;;0.90;;
19495;SDS011;9888;48.606;9.630;2024-02-14T15:42:48;4.30;;;0.90;;
19495;SDS011;9888;48.606;9.630;2024-02-14T15:45:14;4.30;;;0.90;;
19495;SDS011;9888;48.606;9.630;2024-02-14T15:47:43;4.60;;;0.90;;
19495;SDS011;9888;48.606;9.630;2024-02-14T15:50:10;4.50;;;0.90;;
19495;SDS011;9888;48.606;9.630;2024-02-14T15:52:38;5.10;;;0.90;;
19495;SDS011;9888;48.606;9.630;2024-02-14T15:55:06;4.90;;;0.90;;
19495;SDS011;9888;48.606;9.630;2024-02-14T15:57:37;4.67;;;0.90;;